createdAt,value
2022-12-08T00:03:39.361Z,0.81
2022-12-08T00:32:02.206Z,0.48
2022-12-08T01:00:26.609Z,0.19
2022-12-08T01:28:54.677Z,-0.26
2022-12-08T01:57:33.579Z,0.15
2022-12-08T02:26:05.806Z,0.35
2022-12-08T02:54:51.047Z,0.77
2022-12-08T03:23:05.660Z,0.97
2022-12-08T03:51:44.081Z,1.04
2022-12-08T04:20:23.427Z,1.21
2022-12-08T04:49:05.783Z,1.15
2022-12-08T05:17:43.477Z,1.16
2022-12-08T05:46:17.902Z,1.15
2022-12-08T06:14:46.112Z,1.27
2022-12-08T06:43:08.820Z,1.08
2022-12-08T07:11:42.683Z,1.17
2022-12-08T07:40:09.735Z,0.96
2022-12-08T08:08:36.778Z,1.27
2022-12-08T08:37:09.464Z,1.45
2022-12-08T09:05:25.109Z,1.88
2022-12-08T09:33:55.447Z,2.32
2022-12-08T10:02:17.509Z,2.81
2022-12-08T10:30:44.156Z,2.76
2022-12-08T10:59:01.579Z,3.36
2022-12-08T11:27:23.166Z,3.47
2022-12-08T11:55:49.808Z,4.15
2022-12-08T12:23:57.287Z,4.66
2022-12-08T12:52:23.500Z,4.51
2022-12-08T13:20:54.872Z,4.44
2022-12-08T14:17:44.178Z,3.92
2022-12-08T14:46:09.057Z,3.83
2022-12-08T15:14:30.780Z,3.4
2022-12-08T15:42:52.740Z,2.63
2022-12-08T16:11:57.140Z,1.74
2022-12-08T16:39:42.494Z,0.86
2022-12-08T17:07:51.348Z,0.76
2022-12-08T17:36:07.324Z,0.57
2022-12-08T18:04:30.657Z,0.48
2022-12-08T18:32:58.608Z,0.01
2022-12-08T19:01:22.350Z,-0.17
2022-12-08T19:29:27.749Z,-0.56
2022-12-08T19:57:54.493Z,-0.77
2022-12-08T20:25:56.161Z,-1.02
2022-12-08T20:54:23.376Z,-1.27
2022-12-08T21:22:59.077Z,-1.15
2022-12-08T21:51:37.931Z,-1.36
2022-12-08T22:48:23.744Z,-1.61
2022-12-08T23:16:42.648Z,-1.73
2022-12-08T23:45:06.899Z,-2.06
